sensor_id;sensor_type;location;lat;lon;timestamp;pressure;altitude;pressure_sealevel;temperature;humidity
52105;BME280;38103;42.776;23.112;2023-05-02T00:01:31;94298.63;;;7.59;100.00
52105;BME280;38103;42.776;23.112;2023-05-02T00:03:57;94290.94;;;7.57;100.00
52105;BME280;38103;42.776;23.112;2023-05-02T00:06:22;94298.84;;;7.51;100.00
52105;BME280;38103;42.776;23.112;2023-05-02T00:08:48;94266.50;;;7.43;100.00
52105;BME280;38103;42.776;23.112;2023-05-02T00:11:14;94290.91;;;7.64;100.00
52105;BME280;38103;42.776;23.112;2023-05-02T00:13:39;94287.50;;;7.50;100.00
52105;BME280;38103;42.776;23.112;2023-05-02T00:16:05;94290.19;;;7.36;100.00
52105;BME280;38103;42.776;23.112;2023-05-02T00:18:31;94290.63;;;7.26;100.00
52105;BME280;38103;42.776;23.112;2023-05-02T00:20:56;94296.31;;;7.03;100.00
52105;BME280;38103;42.776;23.112;2023-05-02T00:23:21;94300.34;;;6.92;100.00
52105;BME280;38103;42.776;23.112;2023-05-02T00:25:48;94303.97;;;6.91;100.00
52105;BME280;38103;42.776;23.112;2023-05-02T00:28:13;94299.53;;;7.05;100.00
52105;BME280;38103;42.776;23.112;2023-05-02T00:30:43;94268.81;;;6.85;100.00
52105;BME280;38103;42.776;23.112;2023-05-02T00:33:09;94300.94;;;7.08;100.00
52105;BME280;38103;42.776;23.112;2023-05-02T00:35:36;94305.00;;;6.97;100.00
52105;BME280;38103;42.776;23.112;2023-05-02T00:38:01;94304.41;;;6.67;100.00
52105;BME280;38103;42.776;23.112;2023-05-02T00:40:27;94303.34;;;6.48;100.00
52105;BME280;38103;42.776;23.112;2023-05-02T00:42:52;94305.56;;;6.37;100.00
52105;BME280;38103;42.776;23.112;2023-05-02T00:45:17;94310.38;;;6.27;100.00
52105;BME280;38103;42.776;23.112;2023-05-02T00:47:43;94314.03;;;6.26;100.00
52105;BME280;38103;42.776;23.112;2023-05-02T00:50:09;94314.03;;;6.26;100.00
52105;BME280;38103;42.776;23.112;2023-05-02T00:52:34;94295.81;;;6.18;100.00
52105;BME280;38103;42.776;23.112;2023-05-02T00:55:01;94309.59;;;6.47;100.00
52105;BME280;38103;42.776;23.112;2023-05-02T00:57:27;94318.09;;;6.56;100.00
52105;BME280;38103;42.776;23.112;2023-05-02T00:59:53;94308.03;;;6.66;100.00
52105;BME280;38103;42.776;23.112;2023-05-02T01:05:29;94308.66;;;6.96;100.00
52105;BME280;38103;42.776;23.112;2023-05-02T01:08:15;94306.00;;;7.02;100.00
52105;BME280;38103;42.776;23.112;2023-05-02T01:10:51;94298.31;;;7.08;100.00
52105;BME280;38103;42.776;23.112;2023-05-02T01:13:28;94306.41;;;7.26;100.00
52105;BME280;38103;42.776;23.112;2023-05-02T01:15:57;94302.94;;;7.33;100.00
52105;BME280;38103;42.776;23.112;2023-05-02T01:18:28;94303.19;;;7.11;100.00
52105;BME280;38103;42.776;23.112;2023-05-02T01:20:58;94305.59;;;6.99;100.00
52105;BME280;38103;42.776;23.112;2023-05-02T01:29:13;94297.50;;;6.73;100.00
52105;BME280;38103;42.776;23.112;2023-05-02T01:31:45;94302.97;;;6.51;100.00
52105;BME280;38103;42.776;23.112;2023-05-02T01:34:12;94299.31;;;6.52;100.00
52105;BME280;38103;42.776;23.112;2023-05-02T01:36:42;94267.69;;;6.04;100.00
52105;BME280;38103;42.776;23.112;2023-05-02T01:39:10;94312.41;;;6.25;100.00
52105;BME280;38103;42.776;23.112;2023-05-02T01:41:38;94312.78;;;6.22;100.00
52105;BME280;38103;42.776;23.112;2023-05-02T01:44:05;94314.38;;;6.09;100.00
52105;BME280;38103;42.776;23.112;2023-05-02T01:46:35;94315.13;;;6.03;100.00
52105;BME280;38103;42.776;23.112;2023-05-02T01:49:04;94311.94;;;6.08;100.00
52105;BME280;38103;42.776;23.112;2023-05-02T01:51:32;94259.25;;;5.60;100.00
52105;BME280;38103;42.776;23.112;2023-05-02T01:54:02;94295.47;;;5.85;100.00
52105;BME280;38103;42.776;23.112;2023-05-02T01:56:33;94315.13;;;6.03;100.00
52105;BME280;38103;42.776;23.112;2023-05-02T01:59:01;94312.69;;;5.95;100.00
52105;BME280;38103;42.776;23.112;2023-05-02T02:01:26;94311.03;;;5.93;100.00
52105;BME280;38103;42.776;23.112;2023-05-02T02:03:55;94314.16;;;6.11;100.00
52105;BME280;38103;42.776;23.112;2023-05-02T02:06:21;94306.63;;;5.94;100.00
52105;BME280;38103;42.776;23.112;2023-05-02T02:08:47;94311.00;;;5.80;100.00
52105;BME280;38103;42.776;23.112;2023-05-02T02:11:16;94285.56;;;5.74;100.00
52105;BME280;38103;42.776;23.112;2023-05-02T02:13:44;94301.53;;;5.86;100.00
52105;BME280;38103;42.776;23.112;2023-05-02T02:16:20;94297.47;;;5.83;100.00
52105;BME280;38103;42.776;23.112;2023-05-02T02:18:47;94277.91;;;5.79;100.00
52105;BME280;38103;42.776;23.112;2023-05-02T02:21:15;94306.63;;;5.94;100.00
52105;BME280;38103;42.776;23.112;2023-05-02T02:23:46;94294.31;;;5.95;100.00
52105;BME280;38103;42.776;23.112;2023-05-02T02:26:13;94312.78;;;6.15;100.00
52105;BME280;38103;42.776;23.112;2023-05-02T02:28:39;94314.81;;;6.20;100.00
52105;BME280;38103;42.776;23.112;2023-05-02T02:31:05;94312.00;;;6.28;100.00
52105;BME280;38103;42.776;23.112;2023-05-02T02:33:30;94310.75;;;6.10;100.00
52105;BME280;38103;42.776;23.112;2023-05-02T02:36:07;94303.91;;;6.23;100.00
52105;BME280;38103;42.776;23.112;2023-05-02T02:38:44;94309.56;;;6.26;100.00
52105;BME280;38103;42.776;23.112;2023-05-02T02:41:24;94306.72;;;6.21;100.00
52105;BME280;38103;42.776;23.112;2023-05-02T02:44:13;94270.63;;;5.74;100.00
52105;BME280;38103;42.776;23.112;2023-05-02T02:51:53;94315.63;;;5.78;100.00
52105;BME280;38103;42.776;23.112;2023-05-02T02:54:34;94318.22;;;5.64;100.00
52105;BME280;38103;42.776;23.112;2023-05-02T02:57:36;94324.94;;;5.45;100.00
52105;BME280;38103;42.776;23.112;2023-05-02T03:00:18;94327.34;;;5.40;100.00
52105;BME280;38103;42.776;23.112;2023-05-02T03:02:45;94325.19;;;5.21;100.00
52105;BME280;38103;42.776;23.112;2023-05-02T03:05:12;94327.59;;;5.16;100.00
52105;BME280;38103;42.776;23.112;2023-05-02T03:07:38;94323.50;;;5.07;100.00
52105;BME280;38103;42.776;23.112;2023-05-02T03:10:04;94259.63;;;4.79;100.00
52105;BME280;38103;42.776;23.112;2023-05-02T03:12:31;94304.13;;;5.08;100.00
52105;BME280;38103;42.776;23.112;2023-05-02T03:17:40;94327.09;;;5.06;100.00
52105;BME280;38103;42.776;23.112;2023-05-02T03:20:06;94328.38;;;5.10;100.00
52105;BME280;38103;42.776;23.112;2023-05-02T03:22:31;94327.97;;;5.13;100.00
52105;BME280;38103;42.776;23.112;2023-05-02T03:24:57;94332.72;;;5.31;100.00
52105;BME280;38103;42.776;23.112;2023-05-02T03:27:22;94336.25;;;5.45;100.00
52105;BME280;38103;42.776;23.112;2023-05-02T03:29:47;94340.69;;;5.45;100.00
52105;BME280;38103;42.776;23.112;2023-05-02T03:32:13;94339.09;;;5.51;100.00
52105;BME280;38103;42.776;23.112;2023-05-02T03:34:38;94344.00;;;5.61;100.00
52105;BME280;38103;42.776;23.112;2023-05-02T03:37:03;94342.25;;;5.75;100.00
52105;BME280;38103;42.776;23.112;2023-05-02T03:39:29;94339.31;;;5.91;100.00
52105;BME280;38103;42.776;23.112;2023-05-02T03:41:54;94346.22;;;6.06;100.00
52105;BME280;38103;42.776;23.112;2023-05-02T03:44:20;94342.84;;;6.12;100.00
52105;BME280;38103;42.776;23.112;2023-05-02T03:46:45;94344.28;;;6.22;100.00
52105;BME280;38103;42.776;23.112;2023-05-02T03:49:11;94339.47;;;6.32;100.00
52105;BME280;38103;42.776;23.112;2023-05-02T03:51:37;94342.38;;;6.65;100.00
52105;BME280;38103;42.776;23.112;2023-05-02T03:54:03;94342.78;;;6.89;100.00
52105;BME280;38103;42.776;23.112;2023-05-02T03:56:28;94344.63;;;7.22;100.00
52105;BME280;38103;42.776;23.112;2023-05-02T03:58:54;94342.34;;;7.60;100.00
52105;BME280;38103;42.776;23.112;2023-05-02T04:01:19;94317.56;;;7.88;100.00
52105;BME280;38103;42.776;23.112;2023-05-02T04:03:44;94340.25;;;8.35;100.00
52105;BME280;38103;42.776;23.112;2023-05-02T04:06:10;94348.41;;;8.73;100.00
52105;BME280;38103;42.776;23.112;2023-05-02T04:08:37;94343.09;;;9.05;100.00
52105;BME280;38103;42.776;23.112;2023-05-02T04:11:02;94337.25;;;9.48;100.00
52105;BME280;38103;42.776;23.112;2023-05-02T04:13:28;94345.13;;;9.74;100.00
52105;BME280;38103;42.776;23.112;2023-05-02T04:15:54;94346.06;;;9.79;100.00
52105;BME280;38103;42.776;23.112;2023-05-02T04:18:19;94349.38;;;9.93;100.00
52105;BME280;38103;42.776;23.112;2023-05-02T04:20:44;94349.69;;;10.04;100.00
52105;BME280;38103;42.776;23.112;2023-05-02T04:23:10;94353.47;;;10.27;100.00
52105;BME280;38103;42.776;23.112;2023-05-02T04:25:35;94355.22;;;10.33;100.00
52105;BME280;38103;42.776;23.112;2023-05-02T04:28:01;94349.19;;;10.45;100.00
52105;BME280;38103;42.776;23.112;2023-05-02T04:30:26;94362.53;;;10.50;100.00
52105;BME280;38103;42.776;23.112;2023-05-02T04:32:52;94354.59;;;10.69;100.00
52105;BME280;38103;42.776;23.112;2023-05-02T04:35:17;94363.31;;;11.00;100.00
52105;BME280;38103;42.776;23.112;2023-05-02T04:37:43;94309.91;;;10.91;100.00
52105;BME280;38103;42.776;23.112;2023-05-02T04:40:09;94361.38;;;11.32;100.00
52105;BME280;38103;42.776;23.112;2023-05-02T04:42:34;94373.59;;;11.81;100.00
52105;BME280;38103;42.776;23.112;2023-05-02T04:45:00;94363.22;;;11.91;100.00
52105;BME280;38103;42.776;23.112;2023-05-02T04:47:25;94365.31;;;12.13;100.00
52105;BME280;38103;42.776;23.112;2023-05-02T04:49:50;94372.53;;;12.18;100.00
52105;BME280;38103;42.776;23.112;2023-05-02T04:52:16;94373.78;;;12.39;100.00
52105;BME280;38103;42.776;23.112;2023-05-02T04:54:42;94371.16;;;12.86;100.00
52105;BME280;38103;42.776;23.112;2023-05-02T04:57:08;94372.63;;;12.35;100.00
52105;BME280;38103;42.776;23.112;2023-05-02T04:59:34;94368.41;;;11.86;100.00
52105;BME280;38103;42.776;23.112;2023-05-02T05:01:59;94370.47;;;12.08;100.00
52105;BME280;38103;42.776;23.112;2023-05-02T05:04:25;94374.22;;;12.36;100.00
52105;BME280;38103;42.776;23.112;2023-05-02T05:06:50;94370.50;;;12.79;100.00
52105;BME280;38103;42.776;23.112;2023-05-02T05:09:16;94371.66;;;13.00;100.00
52105;BME280;38103;42.776;23.112;2023-05-02T05:11:42;94371.00;;;12.63;100.00
52105;BME280;38103;42.776;23.112;2023-05-02T05:14:08;94331.88;;;12.71;100.00
52105;BME280;38103;42.776;23.112;2023-05-02T05:16:33;94372.19;;;12.85;100.00
52105;BME280;38103;42.776;23.112;2023-05-02T05:18:59;94371.19;;;12.45;100.00
52105;BME280;38103;42.776;23.112;2023-05-02T05:21:24;94368.84;;;12.31;100.00
52105;BME280;38103;42.776;23.112;2023-05-02T05:23:49;94365.06;;;12.56;100.00
52105;BME280;38103;42.776;23.112;2023-05-02T05:26:15;94368.16;;;12.53;100.00
52105;BME280;38103;42.776;23.112;2023-05-02T05:28:41;94374.22;;;12.36;100.00
52105;BME280;38103;42.776;23.112;2023-05-02T05:31:09;94374.25;;;12.12;100.00
52105;BME280;38103;42.776;23.112;2023-05-02T05:33:35;94374.13;;;12.60;100.00
52105;BME280;38103;42.776;23.112;2023-05-02T05:36:11;94376.88;;;12.66;100.00
52105;BME280;38103;42.776;23.112;2023-05-02T05:38:37;94379.31;;;13.14;100.00
52105;BME280;38103;42.776;23.112;2023-05-02T05:41:03;94380.88;;;13.61;100.00
52105;BME280;38103;42.776;23.112;2023-05-02T05:43:32;94379.69;;;14.09;100.00
52105;BME280;38103;42.776;23.112;2023-05-02T05:45:58;94374.22;;;14.44;82.74
52105;BME280;38103;42.776;23.112;2023-05-02T05:48:23;94380.28;;;13.77;73.77
52105;BME280;38103;42.776;23.112;2023-05-02T05:50:49;94374.09;;;13.54;80.10
52105;BME280;38103;42.776;23.112;2023-05-02T05:53:16;94331.47;;;13.26;77.48
52105;BME280;38103;42.776;23.112;2023-05-02T05:55:41;94382.00;;;13.83;76.54
52105;BME280;38103;42.776;23.112;2023-05-02T05:58:07;94335.16;;;13.42;78.07
52105;BME280;38103;42.776;23.112;2023-05-02T06:00:36;94367.00;;;13.77;76.01
52105;BME280;38103;42.776;23.112;2023-05-02T06:03:01;94383.78;;;14.39;74.56
52105;BME280;38103;42.776;23.112;2023-05-02T06:05:28;94380.59;;;14.65;72.85
52105;BME280;38103;42.776;23.112;2023-05-02T06:07:54;94380.84;;;14.63;70.43
52105;BME280;38103;42.776;23.112;2023-05-02T06:10:20;94366.16;;;14.83;70.07
52105;BME280;38103;42.776;23.112;2023-05-02T06:12:45;94378.03;;;14.98;66.41
52105;BME280;38103;42.776;23.112;2023-05-02T06:15:10;94370.88;;;14.76;65.97
52105;BME280;38103;42.776;23.112;2023-05-02T06:17:36;94363.84;;;14.42;66.84
52105;BME280;38103;42.776;23.112;2023-05-02T06:20:01;94369.94;;;13.98;68.05
52105;BME280;38103;42.776;23.112;2023-05-02T06:22:27;94355.41;;;13.83;67.56
52105;BME280;38103;42.776;23.112;2023-05-02T06:24:52;94375.38;;;13.85;66.62
52105;BME280;38103;42.776;23.112;2023-05-02T06:27:17;94377.09;;;14.14;67.53
52105;BME280;38103;42.776;23.112;2023-05-02T06:29:43;94368.25;;;14.08;66.64
52105;BME280;38103;42.776;23.112;2023-05-02T06:32:08;94366.00;;;14.23;66.90
52105;BME280;38103;42.776;23.112;2023-05-02T06:34:34;94380.22;;;14.11;66.54
52105;BME280;38103;42.776;23.112;2023-05-02T06:36:59;94374.72;;;13.95;65.93
52105;BME280;38103;42.776;23.112;2023-05-02T06:39:25;94373.75;;;14.02;64.54
52105;BME280;38103;42.776;23.112;2023-05-02T06:41:50;94383.88;;;14.05;65.94
52105;BME280;38103;42.776;23.112;2023-05-02T06:44:20;94375.81;;;14.00;64.22
52105;BME280;38103;42.776;23.112;2023-05-02T06:46:45;94370.63;;;14.10;65.98
52105;BME280;38103;42.776;23.112;2023-05-02T06:49:11;94368.72;;;14.28;65.84
52105;BME280;38103;42.776;23.112;2023-05-02T06:51:36;94373.84;;;14.57;63.76
52105;BME280;38103;42.776;23.112;2023-05-02T06:54:02;94373.53;;;14.53;62.66
52105;BME280;38103;42.776;23.112;2023-05-02T06:56:27;94375.84;;;14.45;64.28
52105;BME280;38103;42.776;23.112;2023-05-02T06:58:52;94373.84;;;14.57;64.11
52105;BME280;38103;42.776;23.112;2023-05-02T07:01:18;94371.06;;;14.92;64.67
52105;BME280;38103;42.776;23.112;2023-05-02T07:03:45;94347.50;;;14.83;61.87
52105;BME280;38103;42.776;23.112;2023-05-02T07:06:10;94366.00;;;14.68;60.68
52105;BME280;38103;42.776;23.112;2023-05-02T07:08:35;94370.34;;;14.79;61.86
52105;BME280;38103;42.776;23.112;2023-05-02T07:11:01;94372.41;;;14.94;59.72
52105;BME280;38103;42.776;23.112;2023-05-02T07:13:27;94372.47;;;14.77;59.51
52105;BME280;38103;42.776;23.112;2023-05-02T07:15:52;94378.88;;;15.04;60.71
52105;BME280;38103;42.776;23.112;2023-05-02T07:18:18;94384.97;;;14.99;58.19
52105;BME280;38103;42.776;23.112;2023-05-02T07:20:43;94377.72;;;15.22;57.87
52105;BME280;38103;42.776;23.112;2023-05-02T07:23:09;94384.84;;;15.16;58.32
52105;BME280;38103;42.776;23.112;2023-05-02T07:25:34;94341.88;;;15.02;59.88
52105;BME280;38103;42.776;23.112;2023-05-02T07:28:01;94379.06;;;15.58;57.68
52105;BME280;38103;42.776;23.112;2023-05-02T07:30:26;94370.00;;;15.59;58.01
52105;BME280;38103;42.776;23.112;2023-05-02T07:32:51;94392.41;;;15.63;55.82
52105;BME280;38103;42.776;23.112;2023-05-02T07:35:17;94373.72;;;15.58;55.68
52105;BME280;38103;42.776;23.112;2023-05-02T07:37:42;94375.53;;;15.52;57.13
52105;BME280;38103;42.776;23.112;2023-05-02T07:40:08;94379.22;;;15.13;56.63
52105;BME280;38103;42.776;23.112;2023-05-02T07:42:33;94343.00;;;14.84;57.96
52105;BME280;38103;42.776;23.112;2023-05-02T07:45:00;94364.03;;;15.13;60.05
52105;BME280;38103;42.776;23.112;2023-05-02T07:47:26;94362.91;;;15.37;57.77
52105;BME280;38103;42.776;23.112;2023-05-02T07:49:52;94379.69;;;15.75;57.57
52105;BME280;38103;42.776;23.112;2023-05-02T07:52:19;94389.72;;;15.58;54.69
52105;BME280;38103;42.776;23.112;2023-05-02T07:54:44;94387.50;;;15.49;55.97
52105;BME280;38103;42.776;23.112;2023-05-02T07:57:11;94388.00;;;15.46;57.79
52105;BME280;38103;42.776;23.112;2023-05-02T07:59:37;94385.28;;;15.36;55.82
52105;BME280;38103;42.776;23.112;2023-05-02T08:02:03;94381.84;;;15.79;55.81
52105;BME280;38103;42.776;23.112;2023-05-02T08:04:28;94380.41;;;16.04;54.24
52105;BME280;38103;42.776;23.112;2023-05-02T08:06:53;94370.88;;;16.13;53.19
52105;BME280;38103;42.776;23.112;2023-05-02T08:09:19;94381.06;;;16.22;53.48
52105;BME280;38103;42.776;23.112;2023-05-02T08:11:45;94381.84;;;16.22;52.58
52105;BME280;38103;42.776;23.112;2023-05-02T08:14:10;94386.66;;;16.20;52.04
52105;BME280;38103;42.776;23.112;2023-05-02T08:16:36;94392.81;;;16.26;50.94
52105;BME280;38103;42.776;23.112;2023-05-02T08:19:01;94374.34;;;16.14;51.39
52105;BME280;38103;42.776;23.112;2023-05-02T08:21:26;94377.19;;;16.02;51.22
52105;BME280;38103;42.776;23.112;2023-05-02T08:23:59;94382.47;;;15.91;52.45
52105;BME280;38103;42.776;23.112;2023-05-02T08:26:25;94377.25;;;16.07;54.38
52105;BME280;38103;42.776;23.112;2023-05-02T08:28:51;94376.31;;;16.39;54.62
52105;BME280;38103;42.776;23.112;2023-05-02T08:31:16;94363.06;;;16.66;51.97
52105;BME280;38103;42.776;23.112;2023-05-02T08:33:43;94375.59;;;16.60;52.91
52105;BME280;38103;42.776;23.112;2023-05-02T08:36:13;94377.53;;;16.75;49.95
52105;BME280;38103;42.776;23.112;2023-05-02T08:38:40;94371.38;;;16.74;50.93
52105;BME280;38103;42.776;23.112;2023-05-02T08:41:18;94381.84;;;16.97;52.02
52105;BME280;38103;42.776;23.112;2023-05-02T08:43:44;94377.00;;;16.94;49.74
52105;BME280;38103;42.776;23.112;2023-05-02T08:46:11;94370.63;;;16.95;47.88
52105;BME280;38103;42.776;23.112;2023-05-02T08:48:40;94371.38;;;16.74;48.67
52105;BME280;38103;42.776;23.112;2023-05-02T08:51:13;94370.47;;;16.42;49.04
52105;BME280;38103;42.776;23.112;2023-05-02T08:53:40;94367.34;;;16.61;51.15
52105;BME280;38103;42.776;23.112;2023-05-02T08:56:06;94371.13;;;16.81;51.85
52105;BME280;38103;42.776;23.112;2023-05-02T08:58:34;94353.44;;;16.49;51.00
52105;BME280;38103;42.776;23.112;2023-05-02T09:01:00;94368.66;;;16.59;50.24
52105;BME280;38103;42.776;23.112;2023-05-02T09:03:31;94368.88;;;16.41;48.00
52105;BME280;38103;42.776;23.112;2023-05-02T09:08:32;94355.06;;;16.71;49.76
52105;BME280;38103;42.776;23.112;2023-05-02T09:10:57;94358.28;;;16.73;48.86
52105;BME280;38103;42.776;23.112;2023-05-02T09:13:34;94354.06;;;16.88;49.59
52105;BME280;38103;42.776;23.112;2023-05-02T09:16:08;94346.25;;;16.65;51.28
52105;BME280;38103;42.776;23.112;2023-05-02T09:18:40;94349.19;;;16.69;50.74
52105;BME280;38103;42.776;23.112;2023-05-02T09:21:08;94360.41;;;16.71;51.42
52105;BME280;38103;42.776;23.112;2023-05-02T09:23:37;94332.94;;;16.91;50.00
52105;BME280;38103;42.776;23.112;2023-05-02T09:28:45;94334.22;;;16.57;48.91
52105;BME280;38103;42.776;23.112;2023-05-02T09:31:19;94360.94;;;16.73;49.02
52105;BME280;38103;42.776;23.112;2023-05-02T09:33:46;94346.06;;;16.93;48.59
52105;BME280;38103;42.776;23.112;2023-05-02T09:36:13;94340.97;;;16.91;50.02
52105;BME280;38103;42.776;23.112;2023-05-02T09:38:40;94352.31;;;16.45;48.94
52105;BME280;38103;42.776;23.112;2023-05-02T09:41:05;94339.53;;;16.57;49.66
52105;BME280;38103;42.776;23.112;2023-05-02T09:43:31;94336.88;;;16.57;49.57
52105;BME280;38103;42.776;23.112;2023-05-02T09:46:05;94339.06;;;16.81;49.91
52105;BME280;38103;42.776;23.112;2023-05-02T09:48:32;94337.78;;;17.05;49.16
52105;BME280;38103;42.776;23.112;2023-05-02T09:50:58;94343.38;;;16.88;49.44
52105;BME280;38103;42.776;23.112;2023-05-02T09:53:25;94334.81;;;17.06;46.03
52105;BME280;38103;42.776;23.112;2023-05-02T09:56:04;94336.97;;;17.04;48.54
52105;BME280;38103;42.776;23.112;2023-05-02T09:58:29;94336.94;;;16.78;46.67
52105;BME280;38103;42.776;23.112;2023-05-02T10:00:56;94332.13;;;16.70;48.53
52105;BME280;38103;42.776;23.112;2023-05-02T10:03:24;94324.66;;;16.82;47.41
52105;BME280;38103;42.776;23.112;2023-05-02T10:05:51;94327.88;;;16.90;46.15
52105;BME280;38103;42.776;23.112;2023-05-02T10:08:19;94328.41;;;16.81;48.42
52105;BME280;38103;42.776;23.112;2023-05-02T10:10:51;94321.72;;;16.73;50.19
52105;BME280;38103;42.776;23.112;2023-05-02T10:13:19;94324.66;;;16.72;52.35
52105;BME280;38103;42.776;23.112;2023-05-02T10:15:48;94322.53;;;16.95;49.90
52105;BME280;38103;42.776;23.112;2023-05-02T10:18:26;94320.91;;;16.73;49.84
52105;BME280;38103;42.776;23.112;2023-05-02T10:21:02;94318.16;;;16.47;48.71
52105;BME280;38103;42.776;23.112;2023-05-02T10:23:29;94317.69;;;16.71;49.70
52105;BME280;38103;42.776;23.112;2023-05-02T10:25:57;94311.34;;;16.93;48.44
52105;BME280;38103;42.776;23.112;2023-05-02T10:28:23;94308.13;;;17.06;47.07
52105;BME280;38103;42.776;23.112;2023-05-02T10:30:49;94308.69;;;17.08;47.59
52105;BME280;38103;42.776;23.112;2023-05-02T10:33:16;94308.69;;;17.19;46.66
52105;BME280;38103;42.776;23.112;2023-05-02T10:35:44;94305.47;;;17.33;46.42
52105;BME280;38103;42.776;23.112;2023-05-02T10:38:13;94299.06;;;17.39;45.29
52105;BME280;38103;42.776;23.112;2023-05-02T10:40:40;94292.63;;;17.14;45.07
52105;BME280;38103;42.776;23.112;2023-05-02T10:43:07;94307.34;;;17.16;47.46
52105;BME280;38103;42.776;23.112;2023-05-02T10:45:34;94301.22;;;17.16;48.90
52105;BME280;38103;42.776;23.112;2023-05-02T10:50:46;94290.50;;;17.05;46.18
52105;BME280;38103;42.776;23.112;2023-05-02T10:56:16;94303.84;;;17.00;47.72
52105;BME280;38103;42.776;23.112;2023-05-02T10:58:47;94308.13;;;17.12;48.12
52105;BME280;38103;42.776;23.112;2023-05-02T11:03:57;94305.97;;;17.14;47.21
52105;BME280;38103;42.776;23.112;2023-05-02T11:06:31;94299.03;;;17.07;45.70
52105;BME280;38103;42.776;23.112;2023-05-02T11:11:44;94294.25;;;17.25;45.03
52105;BME280;38103;42.776;23.112;2023-05-02T11:14:12;94283.03;;;17.28;45.23
52105;BME280;38103;42.776;23.112;2023-05-02T11:19:22;94285.13;;;17.52;46.16
52105;BME280;38103;42.776;23.112;2023-05-02T11:21:47;94273.38;;;17.59;44.94
52105;BME280;38103;42.776;23.112;2023-05-02T11:24:42;94280.03;;;17.72;44.16
52105;BME280;38103;42.776;23.112;2023-05-02T11:30:03;94265.28;;;17.85;42.66
52105;BME280;38103;42.776;23.112;2023-05-02T11:35:22;94273.84;;;17.82;42.44
52105;BME280;38103;42.776;23.112;2023-05-02T11:38:01;94263.63;;;17.89;43.40
52105;BME280;38103;42.776;23.112;2023-05-02T11:40:30;94267.59;;;18.07;42.31
52105;BME280;38103;42.776;23.112;2023-05-02T11:42:57;94263.09;;;17.92;40.32
52105;BME280;38103;42.776;23.112;2023-05-02T11:45:36;94235.84;;;17.85;43.41
52105;BME280;38103;42.776;23.112;2023-05-02T11:48:05;94250.69;;;18.17;40.78
52105;BME280;38103;42.776;23.112;2023-05-02T11:50:32;94246.69;;;18.09;40.94
52105;BME280;38103;42.776;23.112;2023-05-02T11:52:58;94217.56;;;18.08;40.19
52105;BME280;38103;42.776;23.112;2023-05-02T11:55:23;94230.88;;;18.24;41.50
52105;BME280;38103;42.776;23.112;2023-05-02T11:57:49;94237.59;;;18.21;39.20
52105;BME280;38103;42.776;23.112;2023-05-02T12:00:14;94235.47;;;18.07;39.23
52105;BME280;38103;42.776;23.112;2023-05-02T12:02:41;94238.97;;;18.08;41.31
52105;BME280;38103;42.776;23.112;2023-05-02T12:05:08;94222.84;;;18.29;41.07
52105;BME280;38103;42.776;23.112;2023-05-02T12:10:00;94221.22;;;18.28;40.90
52105;BME280;38103;42.776;23.112;2023-05-02T12:12:26;94221.97;;;18.39;42.03
52105;BME280;38103;42.776;23.112;2023-05-02T12:14:51;94223.41;;;18.61;41.05
52105;BME280;38103;42.776;23.112;2023-05-02T12:17:16;94217.97;;;18.36;39.19
52105;BME280;38103;42.776;23.112;2023-05-02T12:19:42;94211.63;;;18.22;39.40
52105;BME280;38103;42.776;23.112;2023-05-02T12:22:08;94208.94;;;18.27;40.67
52105;BME280;38103;42.776;23.112;2023-05-02T12:24:34;94200.94;;;18.22;41.28
52105;BME280;38103;42.776;23.112;2023-05-02T12:27:13;94208.38;;;18.19;39.86
52105;BME280;38103;42.776;23.112;2023-05-02T12:29:39;94196.22;;;17.97;40.13
52105;BME280;38103;42.776;23.112;2023-05-02T12:32:05;94182.22;;;18.11;40.35
52105;BME280;38103;42.776;23.112;2023-05-02T12:34:34;94192.53;;;18.39;41.13
52105;BME280;38103;42.776;23.112;2023-05-02T12:37:01;94189.03;;;18.38;39.99
52105;BME280;38103;42.776;23.112;2023-05-02T12:41:59;94177.88;;;18.26;40.42
52105;BME280;38103;42.776;23.112;2023-05-02T12:44:35;94121.19;;;18.18;40.78
52105;BME280;38103;42.776;23.112;2023-05-02T12:47:01;94170.25;;;18.43;39.66
52105;BME280;38103;42.776;23.112;2023-05-02T12:49:26;94163.47;;;18.22;39.84
52105;BME280;38103;42.776;23.112;2023-05-02T12:51:52;94147.41;;;18.22;39.49
52105;BME280;38103;42.776;23.112;2023-05-02T12:54:21;94159.56;;;18.43;39.96
52105;BME280;38103;42.776;23.112;2023-05-02T12:56:46;94155.97;;;18.59;42.04
52105;BME280;38103;42.776;23.112;2023-05-02T12:59:30;94155.75;;;18.55;39.73
52105;BME280;38103;42.776;23.112;2023-05-02T13:01:56;94155.78;;;18.50;39.65
52105;BME280;38103;42.776;23.112;2023-05-02T13:04:38;94158.94;;;18.57;39.96
52105;BME280;38103;42.776;23.112;2023-05-02T13:07:05;94113.09;;;18.29;40.65
52105;BME280;38103;42.776;23.112;2023-05-02T13:09:31;94156.34;;;18.47;38.75
52105;BME280;38103;42.776;23.112;2023-05-02T13:11:56;94150.00;;;18.37;38.88
52105;BME280;38103;42.776;23.112;2023-05-02T13:14:23;94172.44;;;18.41;39.46
52105;BME280;38103;42.776;23.112;2023-05-02T13:16:49;94154.72;;;18.00;38.77
52105;BME280;38103;42.776;23.112;2023-05-02T13:19:17;94153.38;;;18.03;39.91
52105;BME280;38103;42.776;23.112;2023-05-02T13:21:42;94143.47;;;18.08;39.23
52105;BME280;38103;42.776;23.112;2023-05-02T13:24:08;94147.78;;;17.99;38.57
52105;BME280;38103;42.776;23.112;2023-05-02T13:26:33;94150.09;;;18.22;38.91
52105;BME280;38103;42.776;23.112;2023-05-02T13:28:58;94145.53;;;18.17;38.51
52105;BME280;38103;42.776;23.112;2023-05-02T13:31:24;94143.09;;;18.26;37.21
52105;BME280;38103;42.776;23.112;2023-05-02T13:33:49;94135.06;;;18.26;38.35
52105;BME280;38103;42.776;23.112;2023-05-02T13:36:15;94134.81;;;18.22;38.18